sensor_id;sensor_type;location;lat;lon;timestamp;pressure;altitude;pressure_sealevel;temperature;humidity
37610;BME280;23457;51.966;8.230;2022-07-10T00:02:12;101848.00;;;16.55;70.65
37610;BME280;23457;51.966;8.230;2022-07-10T00:04:39;101855.59;;;16.28;71.50
37610;BME280;23457;51.966;8.230;2022-07-10T00:07:06;101853.81;;;16.27;71.91
37610;BME280;23457;51.966;8.230;2022-07-10T00:09:33;101852.09;;;16.29;72.21
37610;BME280;23457;51.966;8.230;2022-07-10T00:11:59;101852.16;;;16.36;72.49
37610;BME280;23457;51.966;8.230;2022-07-10T00:14:26;101843.41;;;16.36;73.23
37610;BME280;23457;51.966;8.230;2022-07-10T00:16:53;101833.78;;;16.33;73.38
37610;BME280;23457;51.966;8.230;2022-07-10T00:19:19;101838.13;;;16.30;72.79
37610;BME280;23457;51.966;8.230;2022-07-10T00:21:46;101834.34;;;16.03;73.66
37610;BME280;23457;51.966;8.230;2022-07-10T00:24:13;101835.16;;;15.99;74.12
37610;BME280;23457;51.966;8.230;2022-07-10T00:26:39;101835.25;;;16.10;73.65
37610;BME280;23457;51.966;8.230;2022-07-10T00:29:06;101830.19;;;16.25;73.74
37610;BME280;23457;51.966;8.230;2022-07-10T00:31:33;101827.47;;;16.16;73.34
37610;BME280;23457;51.966;8.230;2022-07-10T00:33:59;101820.69;;;16.38;73.34
37610;BME280;23457;51.966;8.230;2022-07-10T00:36:26;101833.63;;;16.18;74.58
37610;BME280;23457;51.966;8.230;2022-07-10T00:38:52;101822.00;;;15.95;75.21
37610;BME280;23457;51.966;8.230;2022-07-10T00:41:19;101835.25;;;16.08;74.78
37610;BME280;23457;51.966;8.230;2022-07-10T00:43:52;101836.28;;;16.23;74.17
37610;BME280;23457;51.966;8.230;2022-07-10T00:46:19;101850.00;;;15.99;74.93
37610;BME280;23457;51.966;8.230;2022-07-10T00:48:47;101843.25;;;16.18;74.43
37610;BME280;23457;51.966;8.230;2022-07-10T00:51:16;101845.81;;;16.15;75.04
37610;BME280;23457;51.966;8.230;2022-07-10T00:53:48;101845.59;;;15.96;75.15
37610;BME280;23457;51.966;8.230;2022-07-10T00:56:19;101843.59;;;15.75;75.61
37610;BME280;23457;51.966;8.230;2022-07-10T00:58:48;101841.13;;;15.86;75.64
37610;BME280;23457;51.966;8.230;2022-07-10T01:01:16;101843.88;;;15.98;75.62
37610;BME280;23457;51.966;8.230;2022-07-10T01:03:43;101844.78;;;16.00;75.96
37610;BME280;23457;51.966;8.230;2022-07-10T01:06:12;101841.53;;;16.20;74.71
37610;BME280;23457;51.966;8.230;2022-07-10T01:08:39;101842.91;;;15.89;76.15
37610;BME280;23457;51.966;8.230;2022-07-10T01:11:08;101828.72;;;15.74;76.03
37610;BME280;23457;51.966;8.230;2022-07-10T01:13:34;101828.88;;;15.85;76.06
37610;BME280;23457;51.966;8.230;2022-07-10T01:16:01;101825.44;;;15.89;75.71
37610;BME280;23457;51.966;8.230;2022-07-10T01:18:28;101826.94;;;15.69;77.09
37610;BME280;23457;51.966;8.230;2022-07-10T01:20:55;101827.94;;;15.79;77.18
37610;BME280;23457;51.966;8.230;2022-07-10T01:23:22;101823.75;;;15.97;75.83
37610;BME280;23457;51.966;8.230;2022-07-10T01:25:50;101820.13;;;15.86;75.68
37610;BME280;23457;51.966;8.230;2022-07-10T01:28:17;101810.63;;;15.94;76.08
37610;BME280;23457;51.966;8.230;2022-07-10T01:30:44;101822.84;;;15.92;75.70
37610;BME280;23457;51.966;8.230;2022-07-10T01:33:11;101809.69;;;15.89;75.98
37610;BME280;23457;51.966;8.230;2022-07-10T01:35:37;101809.31;;;15.59;77.25
37610;BME280;23457;51.966;8.230;2022-07-10T01:38:05;101812.03;;;15.66;76.71
37610;BME280;23457;51.966;8.230;2022-07-10T01:40:33;101810.22;;;15.61;77.09
37610;BME280;23457;51.966;8.230;2022-07-10T01:42:59;101797.25;;;15.73;76.80
37610;BME280;23457;51.966;8.230;2022-07-10T01:45:26;101800.00;;;15.81;76.68
37610;BME280;23457;51.966;8.230;2022-07-10T01:47:52;101800.72;;;15.69;76.53
37610;BME280;23457;51.966;8.230;2022-07-10T01:50:19;101809.31;;;15.57;76.50
37610;BME280;23457;51.966;8.230;2022-07-10T01:52:45;101800.00;;;15.84;76.43
37610;BME280;23457;51.966;8.230;2022-07-10T01:55:12;101794.72;;;15.79;75.81
37610;BME280;23457;51.966;8.230;2022-07-10T01:57:39;101785.16;;;15.81;76.13
37610;BME280;23457;51.966;8.230;2022-07-10T02:00:06;101796.59;;;15.89;76.28
37610;BME280;23457;51.966;8.230;2022-07-10T02:02:34;101791.94;;;15.65;77.06
37610;BME280;23457;51.966;8.230;2022-07-10T02:05:00;101792.72;;;15.58;76.83
37610;BME280;23457;51.966;8.230;2022-07-10T02:07:27;101785.00;;;15.69;77.13
37610;BME280;23457;51.966;8.230;2022-07-10T02:09:54;101786.59;;;15.59;76.99
37610;BME280;23457;51.966;8.230;2022-07-10T02:12:20;101785.53;;;15.47;77.76
37610;BME280;23457;51.966;8.230;2022-07-10T02:14:47;101787.50;;;15.61;77.76
37610;BME280;23457;51.966;8.230;2022-07-10T02:17:14;101772.66;;;15.62;78.62
37610;BME280;23457;51.966;8.230;2022-07-10T02:19:42;101764.13;;;15.78;76.45
37610;BME280;23457;51.966;8.230;2022-07-10T02:22:08;101778.25;;;15.89;77.04
37610;BME280;23457;51.966;8.230;2022-07-10T02:24:35;101772.63;;;15.57;77.67
37610;BME280;23457;51.966;8.230;2022-07-10T02:27:02;101769.19;;;15.63;78.41
37610;BME280;23457;51.966;8.230;2022-07-10T02:29:28;101767.63;;;15.77;77.28
37610;BME280;23457;51.966;8.230;2022-07-10T02:31:55;101757.91;;;15.68;77.36
37610;BME280;23457;51.966;8.230;2022-07-10T02:34:22;101758.91;;;15.78;77.45
37610;BME280;23457;51.966;8.230;2022-07-10T02:36:48;101759.22;;;15.36;78.82
37610;BME280;23457;51.966;8.230;2022-07-10T02:39:15;101759.69;;;15.72;77.75
37610;BME280;23457;51.966;8.230;2022-07-10T02:41:41;101754.44;;;15.71;78.22
37610;BME280;23457;51.966;8.230;2022-07-10T02:44:08;101757.94;;;15.73;78.29
37610;BME280;23457;51.966;8.230;2022-07-10T02:46:34;101749.91;;;15.55;78.40
37610;BME280;23457;51.966;8.230;2022-07-10T02:49:01;101754.28;;;15.57;78.07
37610;BME280;23457;51.966;8.230;2022-07-10T02:51:27;101759.25;;;15.39;78.70
37610;BME280;23457;51.966;8.230;2022-07-10T02:53:55;101758.72;;;15.63;78.80
37610;BME280;23457;51.966;8.230;2022-07-10T02:56:22;101755.22;;;15.62;78.93
37610;BME280;23457;51.966;8.230;2022-07-10T02:58:48;101752.03;;;15.21;79.61
37610;BME280;23457;51.966;8.230;2022-07-10T03:01:15;101751.56;;;15.53;78.91
37610;BME280;23457;51.966;8.230;2022-07-10T03:03:41;101759.50;;;15.56;79.10
37610;BME280;23457;51.966;8.230;2022-07-10T03:06:08;101751.00;;;15.10;80.11
37610;BME280;23457;51.966;8.230;2022-07-10T03:08:34;101752.75;;;15.10;80.65
37610;BME280;23457;51.966;8.230;2022-07-10T03:11:01;101751.88;;;15.11;80.46
37610;BME280;23457;51.966;8.230;2022-07-10T03:13:28;101757.38;;;15.29;80.34
37610;BME280;23457;51.966;8.230;2022-07-10T03:15:54;101750.88;;;15.01;80.57
37610;BME280;23457;51.966;8.230;2022-07-10T03:18:21;101754.47;;;15.06;80.50
37610;BME280;23457;51.966;8.230;2022-07-10T03:20:48;101756.25;;;15.10;80.78
37610;BME280;23457;51.966;8.230;2022-07-10T03:23:14;101747.78;;;15.28;80.19
37610;BME280;23457;51.966;8.230;2022-07-10T03:25:41;101755.50;;;15.20;80.20
37610;BME280;23457;51.966;8.230;2022-07-10T03:28:08;101755.38;;;15.10;80.77
37610;BME280;23457;51.966;8.230;2022-07-10T03:30:34;101755.47;;;15.16;80.99
37610;BME280;23457;51.966;8.230;2022-07-10T03:33:01;101760.03;;;15.33;79.76
37610;BME280;23457;51.966;8.230;2022-07-10T03:35:30;101756.56;;;15.34;80.00
37610;BME280;23457;51.966;8.230;2022-07-10T03:37:57;101759.06;;;15.24;79.81
37610;BME280;23457;51.966;8.230;2022-07-10T03:40:24;101762.50;;;15.20;81.00
37610;BME280;23457;51.966;8.230;2022-07-10T03:42:52;101763.38;;;15.19;80.56
37610;BME280;23457;51.966;8.230;2022-07-10T03:45:19;101749.19;;;15.03;80.88
37610;BME280;23457;51.966;8.230;2022-07-10T03:47:45;101762.44;;;15.15;81.04
37610;BME280;23457;51.966;8.230;2022-07-10T03:50:12;101767.75;;;15.20;80.79
37610;BME280;23457;51.966;8.230;2022-07-10T03:52:38;101770.41;;;15.24;79.92
37610;BME280;23457;51.966;8.230;2022-07-10T03:55:05;101774.75;;;15.24;80.95
37610;BME280;23457;51.966;8.230;2022-07-10T03:57:32;101774.28;;;15.52;79.57
37610;BME280;23457;51.966;8.230;2022-07-10T04:00:17;101772.53;;;15.53;79.62
37610;BME280;23457;51.966;8.230;2022-07-10T04:02:44;101769.81;;;15.44;79.49
37610;BME280;23457;51.966;8.230;2022-07-10T04:05:10;101767.38;;;15.56;78.97
37610;BME280;23457;51.966;8.230;2022-07-10T04:07:37;101770.56;;;15.36;79.31
37610;BME280;23457;51.966;8.230;2022-07-10T04:10:04;101759.94;;;15.24;80.33
37610;BME280;23457;51.966;8.230;2022-07-10T04:12:31;101766.34;;;15.45;79.37
37610;BME280;23457;51.966;8.230;2022-07-10T04:14:58;101739.06;;;15.30;80.22
37610;BME280;23457;51.966;8.230;2022-07-10T04:17:24;101766.28;;;15.41;80.56
37610;BME280;23457;51.966;8.230;2022-07-10T04:19:51;101763.06;;;14.99;81.64
37610;BME280;23457;51.966;8.230;2022-07-10T04:22:17;101759.69;;;15.04;81.40
37610;BME280;23457;51.966;8.230;2022-07-10T04:24:44;101765.75;;;15.03;81.46
37610;BME280;23457;51.966;8.230;2022-07-10T04:27:11;101768.53;;;15.14;81.38
37610;BME280;23457;51.966;8.230;2022-07-10T04:29:37;101766.84;;;15.18;81.32
37610;BME280;23457;51.966;8.230;2022-07-10T04:32:04;101772.81;;;15.09;81.99
37610;BME280;23457;51.966;8.230;2022-07-10T04:34:30;101766.31;;;14.83;83.26
37610;BME280;23457;51.966;8.230;2022-07-10T04:36:57;101772.69;;;15.00;82.97
37610;BME280;23457;51.966;8.230;2022-07-10T04:39:23;101766.75;;;15.13;81.81
37610;BME280;23457;51.966;8.230;2022-07-10T04:41:50;101765.72;;;15.00;83.39
37610;BME280;23457;51.966;8.230;2022-07-10T04:44:18;101761.22;;;14.90;84.02
37610;BME280;23457;51.966;8.230;2022-07-10T04:46:45;101754.88;;;14.76;85.54
37610;BME280;23457;51.966;8.230;2022-07-10T04:49:12;101766.53;;;14.98;84.69
37610;BME280;23457;51.966;8.230;2022-07-10T04:51:39;101764.56;;;14.82;86.08
37610;BME280;23457;51.966;8.230;2022-07-10T04:54:12;101765.91;;;15.14;84.91
37610;BME280;23457;51.966;8.230;2022-07-10T04:56:38;101770.16;;;15.06;85.58
37610;BME280;23457;51.966;8.230;2022-07-10T04:59:05;101769.38;;;15.13;85.08
37610;BME280;23457;51.966;8.230;2022-07-10T05:01:32;101764.19;;;15.15;84.26
37610;BME280;23457;51.966;8.230;2022-07-10T05:03:58;101767.75;;;15.20;84.16
37610;BME280;23457;51.966;8.230;2022-07-10T05:06:25;101772.44;;;15.45;82.56
37610;BME280;23457;51.966;8.230;2022-07-10T05:08:51;101770.56;;;15.36;83.62
37610;BME280;23457;51.966;8.230;2022-07-10T05:11:19;101767.53;;;15.07;84.04
37610;BME280;23457;51.966;8.230;2022-07-10T05:13:46;101761.69;;;15.25;83.44
37610;BME280;23457;51.966;8.230;2022-07-10T05:16:15;101773.06;;;15.26;83.82
37610;BME280;23457;51.966;8.230;2022-07-10T05:18:46;101761.78;;;15.30;83.29
37610;BME280;23457;51.966;8.230;2022-07-10T05:21:13;101761.09;;;15.48;83.14
37610;BME280;23457;51.966;8.230;2022-07-10T05:23:40;101743.50;;;15.36;83.42
37610;BME280;23457;51.966;8.230;2022-07-10T05:26:07;101742.75;;;15.48;82.02
37610;BME280;23457;51.966;8.230;2022-07-10T05:28:34;101754.09;;;15.47;82.21
37610;BME280;23457;51.966;8.230;2022-07-10T05:31:00;101747.97;;;15.46;82.69
37610;BME280;23457;51.966;8.230;2022-07-10T05:33:27;101760.94;;;15.32;82.56
37610;BME280;23457;51.966;8.230;2022-07-10T05:35:55;101762.16;;;15.59;81.83
37610;BME280;23457;51.966;8.230;2022-07-10T05:38:21;101760.19;;;15.43;81.89
37610;BME280;23457;51.966;8.230;2022-07-10T05:40:48;101770.56;;;15.36;82.49
37610;BME280;23457;51.966;8.230;2022-07-10T05:43:15;101774.03;;;15.35;84.27
37610;BME280;23457;51.966;8.230;2022-07-10T05:45:41;101762.88;;;15.49;82.68
37610;BME280;23457;51.966;8.230;2022-07-10T05:48:14;101767.44;;;15.62;82.85
37610;BME280;23457;51.966;8.230;2022-07-10T05:50:41;101763.25;;;15.77;81.11
37610;BME280;23457;51.966;8.230;2022-07-10T05:53:07;101762.28;;;15.68;82.13
37610;BME280;23457;51.966;8.230;2022-07-10T05:55:34;101768.06;;;15.46;83.02
37610;BME280;23457;51.966;8.230;2022-07-10T05:58:00;101756.66;;;15.40;82.53
37610;BME280;23457;51.966;8.230;2022-07-10T06:00:27;101770.66;;;15.43;82.92
37610;BME280;23457;51.966;8.230;2022-07-10T06:02:54;101769.38;;;15.78;81.60
37610;BME280;23457;51.966;8.230;2022-07-10T06:05:20;101772.06;;;15.83;82.07
37610;BME280;23457;51.966;8.230;2022-07-10T06:07:48;101771.28;;;15.91;81.19
37610;BME280;23457;51.966;8.230;2022-07-10T06:10:14;101775.00;;;16.15;80.44
37610;BME280;23457;51.966;8.230;2022-07-10T06:12:41;101771.13;;;15.79;80.04
37610;BME280;23457;51.966;8.230;2022-07-10T06:15:07;101780.97;;;16.00;80.34
37610;BME280;23457;51.966;8.230;2022-07-10T06:17:34;101777.16;;;15.72;80.67
37610;BME280;23457;51.966;8.230;2022-07-10T06:20:00;101786.72;;;15.67;81.69
37610;BME280;23457;51.966;8.230;2022-07-10T06:22:27;101778.66;;;15.53;81.69
37610;BME280;23457;51.966;8.230;2022-07-10T06:24:57;101781.56;;;15.74;81.58
37610;BME280;23457;51.966;8.230;2022-07-10T06:27:23;101772.78;;;15.72;81.29
37610;BME280;23457;51.966;8.230;2022-07-10T06:29:50;101774.78;;;15.93;81.05
37610;BME280;23457;51.966;8.230;2022-07-10T06:32:16;101779.19;;;15.94;81.57
37610;BME280;23457;51.966;8.230;2022-07-10T06:34:43;101777.44;;;15.96;80.13
37610;BME280;23457;51.966;8.230;2022-07-10T06:37:09;101774.81;;;15.96;79.77
37610;BME280;23457;51.966;8.230;2022-07-10T06:39:36;101774.03;;;16.05;80.27
37610;BME280;23457;51.966;8.230;2022-07-10T06:42:03;101786.28;;;16.06;80.05
37610;BME280;23457;51.966;8.230;2022-07-10T06:44:30;101780.69;;;15.75;80.30
37610;BME280;23457;51.966;8.230;2022-07-10T06:46:57;101783.28;;;15.72;80.09
37610;BME280;23457;51.966;8.230;2022-07-10T06:49:43;101779.97;;;15.87;80.39
37610;BME280;23457;51.966;8.230;2022-07-10T06:52:11;101773.38;;;16.27;78.51
37610;BME280;23457;51.966;8.230;2022-07-10T06:54:38;101766.31;;;16.22;78.80
37610;BME280;23457;51.966;8.230;2022-07-10T06:57:04;101759.47;;;16.36;77.58
37610;BME280;23457;51.966;8.230;2022-07-10T06:59:32;101758.06;;;16.71;76.00
37610;BME280;23457;51.966;8.230;2022-07-10T07:01:58;101757.22;;;16.77;76.36
37610;BME280;23457;51.966;8.230;2022-07-10T07:04:25;101765.84;;;16.62;76.17
37610;BME280;23457;51.966;8.230;2022-07-10T07:06:52;101770.25;;;16.66;75.24
37610;BME280;23457;51.966;8.230;2022-07-10T07:09:18;101773.78;;;16.68;76.67
37610;BME280;23457;51.966;8.230;2022-07-10T07:11:45;101773.75;;;16.65;74.36
37610;BME280;23457;51.966;8.230;2022-07-10T07:14:12;101765.03;;;16.72;75.05
37610;BME280;23457;51.966;8.230;2022-07-10T07:16:38;101772.31;;;17.11;73.35
37610;BME280;23457;51.966;8.230;2022-07-10T07:19:08;101768.69;;;16.93;74.92
37610;BME280;23457;51.966;8.230;2022-07-10T07:21:37;101777.50;;;16.96;75.34
37610;BME280;23457;51.966;8.230;2022-07-10T07:24:22;101781.63;;;16.67;75.28
37610;BME280;23457;51.966;8.230;2022-07-10T07:26:49;101765.94;;;16.74;75.19
37610;BME280;23457;51.966;8.230;2022-07-10T07:29:16;101772.28;;;17.04;73.00
37610;BME280;23457;51.966;8.230;2022-07-10T07:31:44;101780.78;;;16.72;72.65
37610;BME280;23457;51.966;8.230;2022-07-10T07:34:11;101780.22;;;17.14;71.49
37610;BME280;23457;51.966;8.230;2022-07-10T07:36:37;101782.03;;;17.22;71.92
37610;BME280;23457;51.966;8.230;2022-07-10T07:39:04;101781.16;;;17.27;70.26
37610;BME280;23457;51.966;8.230;2022-07-10T07:41:31;101776.72;;;17.17;70.99
37610;BME280;23457;51.966;8.230;2022-07-10T07:43:57;101762.88;;;17.50;73.06
37610;BME280;23457;51.966;8.230;2022-07-10T07:46:24;101784.72;;;17.38;70.14
37610;BME280;23457;51.966;8.230;2022-07-10T07:48:50;101776.81;;;17.35;70.33
37610;BME280;23457;51.966;8.230;2022-07-10T07:51:17;101776.88;;;17.46;70.02
37610;BME280;23457;51.966;8.230;2022-07-10T07:53:44;101793.34;;;17.16;71.69
37610;BME280;23457;51.966;8.230;2022-07-10T07:56:10;101781.13;;;17.18;71.50
37610;BME280;23457;51.966;8.230;2022-07-10T07:58:37;101777.78;;;17.55;69.07
37610;BME280;23457;51.966;8.230;2022-07-10T08:01:04;101764.66;;;17.54;66.43
37610;BME280;23457;51.966;8.230;2022-07-10T08:03:30;101763.69;;;17.38;68.93
37610;BME280;23457;51.966;8.230;2022-07-10T08:06:17;101764.59;;;17.42;67.75
37610;BME280;23457;51.966;8.230;2022-07-10T08:08:43;101755.03;;;17.62;68.54
37610;BME280;23457;51.966;8.230;2022-07-10T08:11:10;101756.06;;;18.08;68.77
37610;BME280;23457;51.966;8.230;2022-07-10T08:13:37;101764.00;;;18.34;68.99
37610;BME280;23457;51.966;8.230;2022-07-10T08:16:04;101774.50;;;18.10;64.52
37610;BME280;23457;51.966;8.230;2022-07-10T08:18:34;101751.63;;;17.89;63.18
37610;BME280;23457;51.966;8.230;2022-07-10T08:21:01;101749.91;;;17.97;62.85
37610;BME280;23457;51.966;8.230;2022-07-10T08:23:27;101749.03;;;17.97;63.73
37610;BME280;23457;51.966;8.230;2022-07-10T08:25:54;101766.53;;;17.81;64.69
37610;BME280;23457;51.966;8.230;2022-07-10T08:28:20;101752.53;;;17.96;64.64
37610;BME280;23457;51.966;8.230;2022-07-10T08:30:50;101750.78;;;17.95;61.60
37610;BME280;23457;51.966;8.230;2022-07-10T08:33:16;101748.13;;;17.90;61.73
37610;BME280;23457;51.966;8.230;2022-07-10T08:35:43;101756.03;;;17.93;64.76
37610;BME280;23457;51.966;8.230;2022-07-10T08:38:09;101758.69;;;18.02;63.45
37610;BME280;23457;51.966;8.230;2022-07-10T08:40:36;101744.63;;;18.00;63.51
37610;BME280;23457;51.966;8.230;2022-07-10T08:43:04;101745.56;;;18.07;62.83
37610;BME280;23457;51.966;8.230;2022-07-10T08:45:32;101745.56;;;18.34;63.90
37610;BME280;23457;51.966;8.230;2022-07-10T08:48:03;101746.44;;;18.41;64.50
37610;BME280;23457;51.966;8.230;2022-07-10T08:50:33;101750.84;;;18.57;64.36
37610;BME280;23457;51.966;8.230;2022-07-10T08:53:13;101748.19;;;18.89;61.28
37610;BME280;23457;51.966;8.230;2022-07-10T08:55:39;101749.94;;;18.88;62.21
37610;BME280;23457;51.966;8.230;2022-07-10T08:58:08;101748.16;;;19.03;60.19
37610;BME280;23457;51.966;8.230;2022-07-10T09:00:35;101749.97;;;18.79;59.75
37610;BME280;23457;51.966;8.230;2022-07-10T09:03:02;101753.41;;;19.03;61.82
37610;BME280;23457;51.966;8.230;2022-07-10T09:05:29;101749.97;;;18.46;59.89
37610;BME280;23457;51.966;8.230;2022-07-10T09:07:56;101742.94;;;18.63;62.59
37610;BME280;23457;51.966;8.230;2022-07-10T09:10:27;101753.47;;;18.78;63.87
37610;BME280;23457;51.966;8.230;2022-07-10T09:12:54;101749.09;;;18.82;64.06
37610;BME280;23457;51.966;8.230;2022-07-10T09:15:27;101743.84;;;18.68;63.34
37610;BME280;23457;51.966;8.230;2022-07-10T09:17:57;101746.44;;;18.19;65.78
37610;BME280;23457;51.966;8.230;2022-07-10T09:20:31;101742.94;;;18.57;64.60
37610;BME280;23457;51.966;8.230;2022-07-10T09:23:19;101742.06;;;18.67;64.12
37610;BME280;23457;51.966;8.230;2022-07-10T09:25:52;101744.69;;;18.87;64.12
37610;BME280;23457;51.966;8.230;2022-07-10T09:28:20;101739.41;;;18.88;65.08
37610;BME280;23457;51.966;8.230;2022-07-10T09:30:48;101745.59;;;18.71;66.76
37610;BME280;23457;51.966;8.230;2022-07-10T09:41:14;101733.28;;;18.85;63.95
37610;BME280;23457;51.966;8.230;2022-07-10T09:44:04;101741.09;;;19.14;64.03
37610;BME280;23457;51.966;8.230;2022-07-10T09:46:38;101747.31;;;18.90;65.61
37610;BME280;23457;51.966;8.230;2022-07-10T09:49:13;101742.06;;;18.52;66.79
37610;BME280;23457;51.966;8.230;2022-07-10T09:51:46;101742.94;;;18.63;66.35
37610;BME280;23457;51.966;8.230;2022-07-10T09:54:16;101750.81;;;18.87;66.88
37610;BME280;23457;51.966;8.230;2022-07-10T09:56:45;101731.53;;;18.35;66.54
37610;BME280;23457;51.966;8.230;2022-07-10T09:59:15;101749.97;;;18.46;66.99
37610;BME280;23457;51.966;8.230;2022-07-10T10:01:44;101742.03;;;18.24;68.24
37610;BME280;23457;51.966;8.230;2022-07-10T10:04:15;101742.94;;;18.33;69.17
37610;BME280;23457;51.966;8.230;2022-07-10T10:06:45;101748.22;;;18.45;68.04
37610;BME280;23457;51.966;8.230;2022-07-10T10:09:22;101748.22;;;18.23;69.54
37610;BME280;23457;51.966;8.230;2022-07-10T10:11:56;101742.06;;;18.27;69.35
37610;BME280;23457;51.966;8.230;2022-07-10T10:14:23;101742.91;;;18.05;69.18
37610;BME280;23457;51.966;8.230;2022-07-10T10:16:52;101742.94;;;18.26;69.29
37610;BME280;23457;51.966;8.230;2022-07-10T10:19:19;101746.41;;;18.01;71.79
37610;BME280;23457;51.966;8.230;2022-07-10T10:22:05;101742.91;;;18.05;73.32
37610;BME280;23457;51.966;8.230;2022-07-10T10:24:39;101743.75;;;17.81;72.63
37610;BME280;23457;51.966;8.230;2022-07-10T10:27:08;101747.25;;;17.88;72.71
37610;BME280;23457;51.966;8.230;2022-07-10T10:29:36;101748.00;;;17.53;73.92
37610;BME280;23457;51.966;8.230;2022-07-10T10:32:04;101741.84;;;17.51;73.54
37610;BME280;23457;51.966;8.230;2022-07-10T10:34:57;101730.44;;;17.49;74.11
37610;BME280;23457;51.966;8.230;2022-07-10T10:37:38;101746.22;;;17.52;74.14
37610;BME280;23457;51.966;8.230;2022-07-10T10:40:08;101745.44;;;17.66;75.80
37610;BME280;23457;51.966;8.230;2022-07-10T10:42:40;101757.69;;;17.64;77.19
37610;BME280;23457;51.966;8.230;2022-07-10T10:48:05;101746.25;;;17.62;79.62
37610;BME280;23457;51.966;8.230;2022-07-10T10:50:55;101743.75;;;17.81;80.29
37610;BME280;23457;51.966;8.230;2022-07-10T10:53:24;101741.13;;;17.92;78.45
37610;BME280;23457;51.966;8.230;2022-07-10T10:58:44;101752.56;;;18.15;79.04
37610;BME280;23457;51.966;8.230;2022-07-10T11:09:24;101751.66;;;18.04;81.27
37610;BME280;23457;51.966;8.230;2022-07-10T11:14:26;101748.22;;;18.33;81.60
37610;BME280;23457;51.966;8.230;2022-07-10T11:16:55;101751.72;;;18.22;80.96
37610;BME280;23457;51.966;8.230;2022-07-10T11:19:25;101758.72;;;18.34;81.83
37610;BME280;23457;51.966;8.230;2022-07-10T11:22:07;101747.31;;;18.11;81.62
37610;BME280;23457;51.966;8.230;2022-07-10T11:27:36;101756.94;;;18.07;85.91
37610;BME280;23457;51.966;8.230;2022-07-10T11:30:08;101751.63;;;17.80;89.88
37610;BME280;23457;51.966;8.230;2022-07-10T11:32:36;101746.34;;;17.77;89.55
37610;BME280;23457;51.966;8.230;2022-07-10T11:35:06;101751.66;;;18.01;92.14
37610;BME280;23457;51.966;8.230;2022-07-10T11:37:34;101746.38;;;17.86;92.13
37610;BME280;23457;51.966;8.230;2022-07-10T11:40:11;101758.63;;;17.87;93.06
37610;BME280;23457;51.966;8.230;2022-07-10T11:42:56;101755.88;;;17.52;94.12
37610;BME280;23457;51.966;8.230;2022-07-10T11:45:28;101748.91;;;17.57;95.93
37610;BME280;23457;51.966;8.230;2022-07-10T11:47:56;101752.41;;;17.59;96.93
37610;BME280;23457;51.966;8.230;2022-07-10T11:50:24;101751.50;;;17.46;97.03
37610;BME280;23457;51.966;8.230;2022-07-10T11:52:51;101754.13;;;17.51;99.66
37610;BME280;23457;51.966;8.230;2022-07-10T11:55:20;101749.75;;;17.61;100.00
37610;BME280;23457;51.966;8.230;2022-07-10T11:57:47;101742.88;;;17.81;99.54
37610;BME280;23457;51.966;8.230;2022-07-10T12:02:48;101736.59;;;17.53;99.07
37610;BME280;23457;51.966;8.230;2022-07-10T12:05:38;101737.56;;;17.75;99.29
37610;BME280;23457;51.966;8.230;2022-07-10T12:08:05;101735.88;;;18.00;100.00
37610;BME280;23457;51.966;8.230;2022-07-10T12:10:33;101730.66;;;18.10;99.54
37610;BME280;23457;51.966;8.230;2022-07-10T12:13:14;101737.66;;;18.26;99.93
37610;BME280;23457;51.966;8.230;2022-07-10T12:15:45;101735.06;;;18.34;99.89
37610;BME280;23457;51.966;8.230;2022-07-10T12:18:20;101736.84;;;18.61;97.87
37610;BME280;23457;51.966;8.230;2022-07-10T12:20:48;101741.16;;;18.07;94.08
37610;BME280;23457;51.966;8.230;2022-07-10T12:23:17;101736.78;;;18.18;95.26
37610;BME280;23457;51.966;8.230;2022-07-10T12:25:46;101740.31;;;18.20;94.92
37610;BME280;23457;51.966;8.230;2022-07-10T12:28:15;101733.28;;;18.09;96.49
37610;BME280;23457;51.966;8.230;2022-07-10T12:30:44;101742.06;;;18.20;96.89
37610;BME280;23457;51.966;8.230;2022-07-10T12:33:13;101742.94;;;18.08;99.08
37610;BME280;23457;51.966;8.230;2022-07-10T12:38:30;101749.91;;;18.02;100.00
37610;BME280;23457;51.966;8.230;2022-07-10T12:41:13;101752.38;;;17.47;100.00
37610;BME280;23457;51.966;8.230;2022-07-10T12:43:40;101728.34;;;16.78;100.00
37610;BME280;23457;51.966;8.230;2022-07-10T12:46:15;101740.97;;;17.46;100.00
37610;BME280;23457;51.966;8.230;2022-07-10T12:48:43;101734.94;;;17.70;100.00
37610;BME280;23457;51.966;8.230;2022-07-10T12:51:26;101728.84;;;17.88;100.00
37610;BME280;23457;51.966;8.230;2022-07-10T12:53:53;101733.28;;;18.42;100.00
37610;BME280;23457;51.966;8.230;2022-07-10T12:56:34;101734.16;;;18.34;100.00
37610;BME280;23457;51.966;8.230;2022-07-10T12:59:13;101740.34;;;18.58;100.00
37610;BME280;23457;51.966;8.230;2022-07-10T13:01:44;101740.28;;;18.39;100.00
37610;BME280;23457;51.966;8.230;2022-07-10T13:04:11;101739.44;;;18.21;100.00
37610;BME280;23457;51.966;8.230;2022-07-10T13:06:39;101732.41;;;18.17;100.00
37610;BME280;23457;51.966;8.230;2022-07-10T13:09:23;101735.91;;;18.04;100.00
37610;BME280;23457;51.966;8.230;2022-07-10T13:11:51;101735.88;;;17.95;100.00
37610;BME280;23457;51.966;8.230;2022-07-10T13:14:19;101735.91;;;18.25;100.00
37610;BME280;23457;51.966;8.230;2022-07-10T13:16:47;101738.56;;;18.42;99.58
37610;BME280;23457;51.966;8.230;2022-07-10T13:19:13;101735.03;;;18.52;98.94
37610;BME280;23457;51.966;8.230;2022-07-10T13:21:40;101728.91;;;18.47;98.60
37610;BME280;23457;51.966;8.230;2022-07-10T13:24:07;101732.44;;;18.36;100.00
37610;BME280;23457;51.966;8.230;2022-07-10T13:26:33;101722.75;;;18.42;99.89
37610;BME280;23457;51.966;8.230;2022-07-10T13:29:00;101726.25;;;18.52;100.00
37610;BME280;23457;51.966;8.230;2022-07-10T13:31:27;101728.91;;;18.20;97.00